createdAt,value
2018-07-01T00:00:53.279Z,1.07
2018-07-01T00:03:23.100Z,1.60
2018-07-01T00:05:52.908Z,1.23
2018-07-01T00:08:22.797Z,1.37
2018-07-01T00:10:52.345Z,1.40
2018-07-01T00:13:22.132Z,1.40
2018-07-01T00:15:52.148Z,1.50
2018-07-01T00:18:21.785Z,1.30
2018-07-01T00:20:51.678Z,1.50
2018-07-01T00:23:21.690Z,1.60
2018-07-01T00:25:51.653Z,1.50
2018-07-01T00:28:21.513Z,1.87
2018-07-01T00:30:51.113Z,1.27
2018-07-01T00:33:21.237Z,1.50
2018-07-01T00:35:50.741Z,1.53
2018-07-01T00:38:20.252Z,1.27
2018-07-01T00:40:49.969Z,1.40
2018-07-01T00:43:19.575Z,1.40
2018-07-01T00:45:49.171Z,1.43
2018-07-01T00:48:19.007Z,1.60
2018-07-01T00:50:49.021Z,1.47
2018-07-01T00:53:18.921Z,1.37
2018-07-01T00:55:48.625Z,1.40
2018-07-01T00:58:18.127Z,1.47
2018-07-01T01:00:48.049Z,2.10
2018-07-01T01:03:17.961Z,1.60
2018-07-01T01:05:47.688Z,1.87
2018-07-01T01:08:17.688Z,1.63
2018-07-01T01:10:47.602Z,1.80
2018-07-01T01:13:17.422Z,1.83
2018-07-01T01:15:47.137Z,1.63
2018-07-01T01:18:16.924Z,1.60
2018-07-01T01:20:46.941Z,1.70
2018-07-01T01:23:16.660Z,1.50
2018-07-01T01:25:46.590Z,1.40
2018-07-01T01:28:16.279Z,1.60
2018-07-01T01:30:46.113Z,1.37
2018-07-01T01:33:16.850Z,1.40
2018-07-01T01:35:47.043Z,1.17
2018-07-01T01:38:16.958Z,1.30
2018-07-01T01:40:50.761Z,1.13
2018-07-01T01:43:24.987Z,1.10
2018-07-01T01:45:58.699Z,1.63
2018-07-01T01:48:32.499Z,1.80
2018-07-01T01:51:06.199Z,1.50
2018-07-01T01:53:40.011Z,1.47
2018-07-01T01:56:13.700Z,1.73
2018-07-01T01:58:47.723Z,1.60
2018-07-01T02:01:21.631Z,1.50
2018-07-01T02:03:55.528Z,1.50
2018-07-01T02:06:28.731Z,1.50
2018-07-01T02:09:02.937Z,1.13
2018-07-01T02:11:34.999Z,1.60
2018-07-01T02:14:07.784Z,1.40
2018-07-01T02:16:41.600Z,1.80
2018-07-01T02:19:11.620Z,1.40
2018-07-01T02:21:41.097Z,1.67
2018-07-01T02:24:15.121Z,1.70
2018-07-01T02:26:44.939Z,1.57
2018-07-01T02:29:14.942Z,1.43
2018-07-01T02:31:45.379Z,1.50
2018-07-01T02:34:15.172Z,1.57
2018-07-01T02:36:45.420Z,1.73
2018-07-01T02:39:15.729Z,1.50
2018-07-01T02:41:45.345Z,1.47
2018-07-01T02:44:15.447Z,1.70
2018-07-01T02:46:45.162Z,1.90
2018-07-01T02:49:14.782Z,1.77
2018-07-01T02:51:44.693Z,1.90
2018-07-01T02:54:14.699Z,2.07
2018-07-01T02:56:44.619Z,1.90
2018-07-01T02:59:14.632Z,2.00
2018-07-01T03:01:44.126Z,1.80
2018-07-01T03:04:13.748Z,2.17
2018-07-01T03:06:43.747Z,2.00
2018-07-01T03:09:14.179Z,1.87
2018-07-01T03:11:44.118Z,2.13
2018-07-01T03:14:13.708Z,2.00
2018-07-01T03:16:43.507Z,2.00
2018-07-01T03:19:13.319Z,2.00
2018-07-01T03:21:43.142Z,2.07
2018-07-01T03:24:13.169Z,2.10
2018-07-01T03:26:42.971Z,1.90
2018-07-01T03:29:12.579Z,1.77
2018-07-01T03:31:42.389Z,1.90
2018-07-01T03:34:11.894Z,1.67
2018-07-01T03:36:41.601Z,1.90
2018-07-01T03:39:11.726Z,1.90
2018-07-01T03:41:41.531Z,1.90
2018-07-01T03:44:11.138Z,2.10
2018-07-01T03:46:40.783Z,1.77
2018-07-01T03:49:10.366Z,1.93
2018-07-01T03:51:40.159Z,1.90
2018-07-01T03:54:09.975Z,1.70
2018-07-01T03:56:39.681Z,1.80
2018-07-01T03:59:09.284Z,1.80
2018-07-01T04:01:39.312Z,1.80
2018-07-01T04:04:09.038Z,1.70
2018-07-01T04:06:39.041Z,1.70
2018-07-01T04:09:10.272Z,1.60
2018-07-01T04:11:40.186Z,2.00
2018-07-01T04:14:10.312Z,1.67
2018-07-01T04:16:40.115Z,2.03
2018-07-01T04:19:09.719Z,1.93
2018-07-01T04:21:39.359Z,2.00
2018-07-01T04:24:09.159Z,1.70
2018-07-01T04:26:38.845Z,1.57
2018-07-01T04:29:09.181Z,1.43
2018-07-01T04:31:39.208Z,1.70
2018-07-01T04:34:09.009Z,1.73
2018-07-01T04:36:39.338Z,1.40
2018-07-01T04:39:10.172Z,1.60
2018-07-01T04:41:40.191Z,1.67
2018-07-01T04:44:10.926Z,1.30
2018-07-01T04:46:41.032Z,1.30
2018-07-01T04:49:11.006Z,1.40
2018-07-01T04:51:41.090Z,1.57
2018-07-01T04:54:11.306Z,1.60
2018-07-01T04:56:41.012Z,1.70
2018-07-01T04:59:11.141Z,1.77
2018-07-01T05:01:41.351Z,1.80
2018-07-01T05:04:11.669Z,1.50
2018-07-01T05:06:41.682Z,1.30
2018-07-01T05:09:13.338Z,1.33
2018-07-01T05:11:43.969Z,1.07
2018-07-01T05:14:14.189Z,1.23
2018-07-01T05:16:44.019Z,1.33
2018-07-01T05:19:13.787Z,1.20
2018-07-01T05:21:44.050Z,1.30
2018-07-01T05:24:13.958Z,1.47
2018-07-01T05:26:43.448Z,1.33
2018-07-01T05:29:13.780Z,1.00
2018-07-01T05:31:43.586Z,1.20
2018-07-01T05:34:13.185Z,1.60
2018-07-01T05:36:43.009Z,1.07
2018-07-01T05:39:13.638Z,1.03
2018-07-01T05:41:43.766Z,1.00
2018-07-01T05:44:13.363Z,1.10
2018-07-01T05:46:43.589Z,1.27
2018-07-01T05:49:13.696Z,0.97
2018-07-01T05:51:43.509Z,1.27
2018-07-01T05:54:13.112Z,0.93
2018-07-01T05:56:42.924Z,1.00
2018-07-01T05:59:13.059Z,1.23
2018-07-01T06:01:42.962Z,1.00
2018-07-01T06:04:12.671Z,1.13
2018-07-01T06:06:42.593Z,1.13
2018-07-01T06:09:13.429Z,1.40
2018-07-01T06:11:43.968Z,1.27
2018-07-01T06:14:13.979Z,1.20
2018-07-01T06:16:44.790Z,1.40
2018-07-01T06:19:14.632Z,1.10
2018-07-01T06:21:44.941Z,1.10
2018-07-01T06:24:14.962Z,1.10
2018-07-01T06:26:45.389Z,1.30
2018-07-01T06:29:15.087Z,1.27
2018-07-01T06:31:45.099Z,0.90
2018-07-01T06:34:15.551Z,0.90
2018-07-01T06:36:45.550Z,1.00
2018-07-01T06:39:15.680Z,0.80
2018-07-01T06:41:45.701Z,1.00
2018-07-01T06:44:15.708Z,0.97
2018-07-01T06:46:45.527Z,1.23
2018-07-01T06:49:15.532Z,1.40
2018-07-01T06:51:45.453Z,1.37
2018-07-01T06:54:15.790Z,1.00
2018-07-01T06:56:45.683Z,0.90
2018-07-01T06:59:16.119Z,1.07
2018-07-01T07:01:46.750Z,1.00
2018-07-01T07:04:16.958Z,1.20
2018-07-01T07:06:47.696Z,1.43
2018-07-01T07:09:18.240Z,1.10
2018-07-01T07:11:48.139Z,1.13
2018-07-01T07:14:18.168Z,1.40
2018-07-01T07:16:48.600Z,1.10
2018-07-01T07:19:18.798Z,1.00
2018-07-01T07:21:49.116Z,1.30
2018-07-01T07:24:19.566Z,1.00
2018-07-01T07:26:49.669Z,0.97
2018-07-01T07:29:19.682Z,1.43
2018-07-01T07:31:50.109Z,1.07
2018-07-01T07:34:20.695Z,1.00
2018-07-01T07:36:50.978Z,0.70
2018-07-01T07:39:21.183Z,1.10
2018-07-01T07:41:51.105Z,1.00
2018-07-01T07:44:21.964Z,1.20
2018-07-01T07:46:52.057Z,0.73
2018-07-01T07:49:22.177Z,0.80
2018-07-01T07:51:52.806Z,1.03
2018-07-01T07:54:22.727Z,0.70
2018-07-01T07:56:53.139Z,0.80
2018-07-01T07:59:23.371Z,0.90
2018-07-01T08:01:54.029Z,1.20
2018-07-01T08:04:25.752Z,0.93
2018-07-01T08:06:55.700Z,0.70
2018-07-01T08:09:25.400Z,0.80
2018-07-01T08:11:55.289Z,0.70
2018-07-01T08:14:25.103Z,0.90
2018-07-01T08:16:55.439Z,1.10
2018-07-01T08:19:25.355Z,1.00
2018-07-01T08:21:55.632Z,1.07
2018-07-01T08:24:26.408Z,0.83
2018-07-01T08:26:56.427Z,0.90
2018-07-01T08:29:26.647Z,1.20
2018-07-01T08:31:56.651Z,0.87
2018-07-01T08:34:26.691Z,0.70
2018-07-01T08:36:56.999Z,1.10
2018-07-01T08:39:27.513Z,0.97
2018-07-01T08:42:01.346Z,1.00
2018-07-01T08:44:31.043Z,0.80
2018-07-01T08:47:01.252Z,0.93
2018-07-01T08:49:31.166Z,0.67
2018-07-01T08:52:01.397Z,1.10
2018-07-01T08:54:31.405Z,0.93
2018-07-01T08:57:01.109Z,0.80
2018-07-01T08:59:31.040Z,0.87
2018-07-01T09:02:01.161Z,0.93
2018-07-01T09:04:31.582Z,0.87
2018-07-01T09:07:01.694Z,0.80
2018-07-01T09:09:31.919Z,1.30
2018-07-01T09:12:01.733Z,0.70
2018-07-01T09:14:31.562Z,0.80
2018-07-01T09:17:01.766Z,1.03
2018-07-01T09:19:31.783Z,0.90
2018-07-01T09:22:02.097Z,1.17
2018-07-01T09:24:32.320Z,1.00
2018-07-01T09:27:02.367Z,0.73
2018-07-01T09:29:32.470Z,0.70
2018-07-01T09:32:02.689Z,0.70
2018-07-01T09:34:32.731Z,0.90
2018-07-01T09:37:02.627Z,0.70
2018-07-01T09:39:32.537Z,0.70
2018-07-01T09:42:02.667Z,1.00
2018-07-01T09:44:32.550Z,1.10
2018-07-01T09:47:02.591Z,0.97
2018-07-01T09:49:32.598Z,1.20
2018-07-01T09:52:02.526Z,1.07
2018-07-01T09:54:32.799Z,0.80
2018-07-01T09:57:02.970Z,0.50
2018-07-01T09:59:33.081Z,0.50
2018-07-01T10:02:03.294Z,0.90
2018-07-01T10:04:33.111Z,0.80
2018-07-01T10:07:03.011Z,1.10
2018-07-01T10:09:33.249Z,0.90
2018-07-01T10:12:03.393Z,0.77
2018-07-01T10:14:33.380Z,0.87
2018-07-01T10:17:03.815Z,0.93
2018-07-01T10:19:33.612Z,1.00
2018-07-01T10:22:03.631Z,0.87
2018-07-01T10:24:33.345Z,0.80
2018-07-01T10:27:03.660Z,0.80
2018-07-01T10:29:33.368Z,0.73
2018-07-01T10:32:03.700Z,0.63
2018-07-01T10:34:33.398Z,0.80
2018-07-01T10:37:03.632Z,0.90
2018-07-01T10:39:33.635Z,0.60
2018-07-01T10:42:03.657Z,0.70
2018-07-01T10:44:33.779Z,0.83
2018-07-01T10:47:04.007Z,0.70
2018-07-01T10:49:34.330Z,0.80
2018-07-01T10:52:04.137Z,0.90
2018-07-01T10:54:34.049Z,0.80
2018-07-01T10:57:03.794Z,0.83
2018-07-01T10:59:33.672Z,1.00
2018-07-01T11:02:03.693Z,0.90
2018-07-01T11:04:33.725Z,0.60
2018-07-01T11:07:03.731Z,0.70
2018-07-01T11:09:34.144Z,0.67
2018-07-01T11:12:04.250Z,0.57
2018-07-01T11:14:33.999Z,0.70
2018-07-01T11:17:04.196Z,0.73
2018-07-01T11:19:34.729Z,0.70
2018-07-01T11:22:05.157Z,0.63
2018-07-01T11:24:34.968Z,0.57
2018-07-01T11:27:05.578Z,0.63
2018-07-01T11:29:36.014Z,0.63
2018-07-01T11:32:06.038Z,0.60
2018-07-01T11:34:36.061Z,0.67
2018-07-01T11:37:06.390Z,0.90
2018-07-01T11:39:35.998Z,0.70
2018-07-01T11:42:06.010Z,0.60
2018-07-01T11:44:36.575Z,0.70
2018-07-01T11:47:06.783Z,0.60
2018-07-01T11:49:36.971Z,0.70
2018-07-01T11:52:07.817Z,0.50
2018-07-01T11:54:37.737Z,0.77
2018-07-01T11:57:07.533Z,0.50
2018-07-01T11:59:37.657Z,0.60
2018-07-01T12:02:08.178Z,0.50
2018-07-01T12:04:37.788Z,0.77
2018-07-01T12:07:07.600Z,0.50
2018-07-01T12:09:37.618Z,1.17
2018-07-01T12:12:07.440Z,0.50
2018-07-01T12:14:37.761Z,1.20
2018-07-01T12:17:08.181Z,0.80
2018-07-01T12:19:37.987Z,0.80
2018-07-01T12:22:08.110Z,0.50
2018-07-01T12:24:37.794Z,0.80
2018-07-01T12:27:07.749Z,0.77
2018-07-01T12:29:37.744Z,0.60
2018-07-01T12:32:08.082Z,0.50
2018-07-01T12:34:38.015Z,0.60
2018-07-01T12:37:08.121Z,0.60
2018-07-01T12:39:37.906Z,0.77
2018-07-01T12:42:08.681Z,1.00
2018-07-01T12:44:38.780Z,0.90
2018-07-01T12:47:08.776Z,0.80
2018-07-01T12:49:38.699Z,1.00
2018-07-01T12:52:08.518Z,0.73
2018-07-01T12:54:38.932Z,0.70
2018-07-01T12:57:09.050Z,0.90
2018-07-01T12:59:38.787Z,0.80
2018-07-01T13:02:08.999Z,0.50
2018-07-01T13:04:38.918Z,0.60
2018-07-01T13:07:09.630Z,0.60
2018-07-01T13:09:39.650Z,0.50
2018-07-01T13:12:10.074Z,0.80
2018-07-01T13:14:40.298Z,0.90
2018-07-01T13:17:11.540Z,0.80
2018-07-01T13:19:41.348Z,0.77
2018-07-01T13:22:11.277Z,0.57
2018-07-01T13:24:41.708Z,0.80
2018-07-01T13:27:11.414Z,0.50
2018-07-01T13:29:41.201Z,0.57
2018-07-01T13:32:11.024Z,0.43
2018-07-01T13:34:40.722Z,0.47
2018-07-01T13:37:10.762Z,0.87
2018-07-01T13:39:41.178Z,0.80
2018-07-01T13:42:11.183Z,0.50
2018-07-01T13:44:41.338Z,0.30
2018-07-01T13:47:11.542Z,0.40
2018-07-01T13:49:41.562Z,0.40
2018-07-01T13:52:11.781Z,0.60
2018-07-01T13:54:41.689Z,0.57
2018-07-01T13:57:11.348Z,0.60
2018-07-01T13:59:41.429Z,0.60
2018-07-01T14:02:11.733Z,0.63
2018-07-01T14:04:42.810Z,0.70
2018-07-01T14:07:12.800Z,0.60
2018-07-01T14:09:42.936Z,0.60
2018-07-01T14:12:13.552Z,0.60
2018-07-01T14:14:43.671Z,0.60
2018-07-01T14:17:13.991Z,0.50
2018-07-01T14:19:44.003Z,0.40
2018-07-01T14:22:14.739Z,0.60
2018-07-01T14:24:44.753Z,0.50
2018-07-01T14:27:15.222Z,0.77
2018-07-01T14:29:45.787Z,0.43
2018-07-01T14:32:15.921Z,0.67
2018-07-01T14:34:45.947Z,0.60
2018-07-01T14:37:15.765Z,0.77
2018-07-01T14:39:45.771Z,0.60
2018-07-01T14:42:15.690Z,0.50
2018-07-01T14:44:46.519Z,0.70
2018-07-01T14:47:16.646Z,0.57
2018-07-01T14:49:46.760Z,0.60
2018-07-01T14:52:16.996Z,0.60
2018-07-01T14:54:47.347Z,0.60
2018-07-01T14:57:17.328Z,0.70
2018-07-01T14:59:47.120Z,0.60
2018-07-01T15:02:16.962Z,0.80
2018-07-01T15:04:47.681Z,0.53
2018-07-01T15:07:17.589Z,0.60
2018-07-01T15:09:47.723Z,0.43
2018-07-01T15:12:17.620Z,0.60
2018-07-01T15:14:47.639Z,0.60
2018-07-01T15:17:17.562Z,0.67
2018-07-01T15:19:47.250Z,0.70
2018-07-01T15:22:17.191Z,0.50
2018-07-01T15:24:47.712Z,0.50
2018-07-01T15:27:17.524Z,0.40
2018-07-01T15:29:47.112Z,0.60
2018-07-01T15:32:17.126Z,0.70
2018-07-01T15:34:46.763Z,0.43
2018-07-01T15:37:16.973Z,0.60
2018-07-01T15:39:47.720Z,0.60
2018-07-01T15:42:17.624Z,0.67
2018-07-01T15:44:47.747Z,0.70
2018-07-01T15:47:17.752Z,0.70
2018-07-01T15:49:47.788Z,0.50
2018-07-01T15:52:17.683Z,0.70
2018-07-01T15:54:47.693Z,0.60
2018-07-01T15:57:17.787Z,0.70
2018-07-01T15:59:47.740Z,0.57
2018-07-01T16:02:17.951Z,0.40
2018-07-01T16:04:48.068Z,0.73
2018-07-01T16:07:18.703Z,0.83
2018-07-01T16:09:49.031Z,0.60
2018-07-01T16:12:19.046Z,0.40
2018-07-01T16:14:49.379Z,0.47
2018-07-01T16:17:19.268Z,0.40
2018-07-01T16:19:49.187Z,0.50
2018-07-01T16:22:19.421Z,0.60
2018-07-01T16:24:53.542Z,0.43
2018-07-01T16:27:27.541Z,0.50
2018-07-01T16:29:57.242Z,0.60
2018-07-01T16:32:27.149Z,0.50
2018-07-01T16:34:57.077Z,0.50
2018-07-01T16:37:26.992Z,0.63
2018-07-01T16:39:57.334Z,0.50
2018-07-01T16:42:27.756Z,0.70
2018-07-01T16:44:57.356Z,0.60
2018-07-01T16:47:27.246Z,0.50
2018-07-01T16:49:57.400Z,0.50
2018-07-01T16:52:27.283Z,0.57
2018-07-01T16:54:57.209Z,0.60
2018-07-01T16:57:27.743Z,0.60
2018-07-01T16:59:57.649Z,0.60
2018-07-01T17:02:27.778Z,0.60
2018-07-01T17:04:57.801Z,0.60
2018-07-01T17:07:27.901Z,0.80
2018-07-01T17:09:58.025Z,0.70
2018-07-01T17:12:28.128Z,0.63
2018-07-01T17:14:58.662Z,0.70
2018-07-01T17:17:28.981Z,0.60
2018-07-01T17:19:59.011Z,0.77
2018-07-01T17:22:28.931Z,0.50
2018-07-01T17:24:59.142Z,0.50
2018-07-01T17:27:29.147Z,0.80
2018-07-01T17:29:59.173Z,0.80
2018-07-01T17:32:33.181Z,0.70
2018-07-01T17:35:03.121Z,0.40
2018-07-01T17:37:33.131Z,0.90
2018-07-01T17:40:02.922Z,0.70
2018-07-01T17:42:33.778Z,0.80
2018-07-01T17:45:03.990Z,0.70
2018-07-01T17:47:33.693Z,0.70
2018-07-01T17:50:03.499Z,0.90
2018-07-01T17:52:33.791Z,0.73
2018-07-01T17:55:04.053Z,0.40
2018-07-01T17:57:34.181Z,0.60
2018-07-01T18:00:03.991Z,0.60
2018-07-01T18:02:34.307Z,0.80
2018-07-01T18:05:04.107Z,0.80
2018-07-01T18:07:34.042Z,1.03
2018-07-01T18:10:04.168Z,0.90
2018-07-01T18:12:33.557Z,0.60
2018-07-01T18:15:03.563Z,1.10
2018-07-01T18:17:33.064Z,0.60
2018-07-01T18:20:02.980Z,0.60
2018-07-01T18:23:00.808Z,0.73
2018-07-01T18:25:09.840Z,0.60
2018-07-01T18:27:36.095Z,0.80
2018-07-01T18:30:04.997Z,0.93
2018-07-01T18:32:35.437Z,0.70
2018-07-01T18:35:05.431Z,1.10
2018-07-01T18:37:35.243Z,0.70
2018-07-01T18:40:06.235Z,0.60
2018-07-01T18:42:35.957Z,0.80
2018-07-01T18:45:06.417Z,0.83
2018-07-01T18:47:38.997Z,0.80
2018-07-01T18:50:10.567Z,0.83
2018-07-01T18:52:40.570Z,1.07
2018-07-01T18:55:10.788Z,0.83
2018-07-01T18:57:42.238Z,0.80
2018-07-01T19:00:16.759Z,0.87
2018-07-01T19:02:46.688Z,0.93
2018-07-01T19:05:16.294Z,0.80
2018-07-01T19:07:46.412Z,0.90
2018-07-01T19:10:16.632Z,0.90
2018-07-01T19:12:46.237Z,1.13
2018-07-01T19:15:16.150Z,0.90
2018-07-01T19:17:45.783Z,0.90
2018-07-01T19:20:15.261Z,0.87
2018-07-01T19:22:45.273Z,0.73
2018-07-01T19:25:15.789Z,0.90
2018-07-01T19:27:45.203Z,0.87
2018-07-01T19:30:14.850Z,0.87
2018-07-01T19:32:47.781Z,0.80
2018-07-01T19:35:17.711Z,1.00
2018-07-01T19:37:47.725Z,1.20
2018-07-01T19:40:17.330Z,0.80
2018-07-01T19:42:47.338Z,0.90
2018-07-01T19:45:16.950Z,0.93
2018-07-01T19:47:46.560Z,1.00
2018-07-01T19:50:16.275Z,1.10
2018-07-01T19:52:45.776Z,1.00
2018-07-01T19:55:15.903Z,1.33
2018-07-01T19:57:45.525Z,1.20
2018-07-01T20:00:15.720Z,1.20
2018-07-01T20:02:46.763Z,1.20
2018-07-01T20:05:16.577Z,1.83
2018-07-01T20:07:46.290Z,1.67
2018-07-01T20:10:17.119Z,1.77
2018-07-01T20:12:47.846Z,1.70
2018-07-01T20:15:18.779Z,1.97
2018-07-01T20:17:50.649Z,1.70
2018-07-01T20:20:21.180Z,1.70
2018-07-01T20:22:50.988Z,2.00
2018-07-01T20:25:21.792Z,2.07
2018-07-01T20:27:52.152Z,2.20
2018-07-01T20:30:23.300Z,2.60
2018-07-01T20:32:53.209Z,2.20
2018-07-01T20:35:25.582Z,2.53
2018-07-01T20:37:55.401Z,2.40
2018-07-01T20:40:25.922Z,2.60
2018-07-01T20:42:55.742Z,2.50
2018-07-01T20:45:25.235Z,3.03
2018-07-01T20:47:54.781Z,2.50
2018-07-01T20:50:25.272Z,2.20
2018-07-01T20:52:56.919Z,1.90
2018-07-01T20:55:27.245Z,2.20
2018-07-01T20:57:59.721Z,1.70
2018-07-01T21:00:29.943Z,2.03
2018-07-01T21:02:59.763Z,2.00
2018-07-01T21:05:29.808Z,1.70
2018-07-01T21:07:59.374Z,1.90
2018-07-01T21:10:29.292Z,1.97
2018-07-01T21:12:58.784Z,1.67
2018-07-01T21:15:28.296Z,1.90
2018-07-01T21:17:57.611Z,2.07
2018-07-01T21:20:27.109Z,1.57
2018-07-01T21:22:56.616Z,1.60
2018-07-01T21:25:26.315Z,1.97
2018-07-01T21:27:55.717Z,2.10
2018-07-01T21:30:25.120Z,1.60
2018-07-01T21:32:55.751Z,1.80
2018-07-01T21:35:27.916Z,1.87
2018-07-01T21:38:01.511Z,2.00
2018-07-01T21:40:35.783Z,1.93
2018-07-01T21:43:07.282Z,1.70
2018-07-01T21:45:37.099Z,2.10
2018-07-01T21:48:06.911Z,2.33
2018-07-01T21:50:36.515Z,2.40
2018-07-01T21:53:06.536Z,2.00
2018-07-01T21:55:36.139Z,2.20
2018-07-01T21:58:05.440Z,2.03
2018-07-01T22:00:35.080Z,1.90
2018-07-01T22:03:05.780Z,1.80
2018-07-01T22:05:35.588Z,2.00
2018-07-01T22:08:05.194Z,1.53
2018-07-01T22:10:39.000Z,2.03
2018-07-01T22:13:13.010Z,1.70
2018-07-01T22:15:47.122Z,1.60
2018-07-01T22:18:17.040Z,1.93
2018-07-01T22:20:46.337Z,1.70
2018-07-01T22:23:15.942Z,1.70
2018-07-01T22:25:45.450Z,1.87
2018-07-01T22:28:14.956Z,1.23
2018-07-01T22:30:44.559Z,1.53
2018-07-01T22:33:14.169Z,1.40
2018-07-01T22:35:43.581Z,1.50
2018-07-01T22:38:12.976Z,1.90
2018-07-01T22:40:42.684Z,1.90
2018-07-01T22:43:12.289Z,1.93
2018-07-01T22:45:43.789Z,2.53
2018-07-01T22:48:13.242Z,2.30
2018-07-01T22:50:42.785Z,2.57
2018-07-01T22:53:12.172Z,2.00
2018-07-01T22:55:41.754Z,2.40
2018-07-01T22:58:11.258Z,2.37
2018-07-01T23:00:40.782Z,2.40
2018-07-01T23:03:18.671Z,2.50
2018-07-01T23:05:48.281Z,2.30
2018-07-01T23:08:17.980Z,2.17
2018-07-01T23:10:47.590Z,2.20
2018-07-01T23:13:18.791Z,2.30
2018-07-01T23:15:48.557Z,2.67
2018-07-01T23:18:17.953Z,2.33
2018-07-01T23:20:47.669Z,2.37
2018-07-01T23:23:17.161Z,2.03
2018-07-01T23:25:46.775Z,2.60
2018-07-01T23:28:16.275Z,2.30
2018-07-01T23:30:46.092Z,2.20
2018-07-01T23:33:15.707Z,1.80
2018-07-01T23:35:45.794Z,2.40
2018-07-01T23:38:15.523Z,2.40
2018-07-01T23:40:45.252Z,2.17
2018-07-01T23:43:15.157Z,2.47
2018-07-01T23:45:44.757Z,2.20
2018-07-01T23:48:14.364Z,2.60
2018-07-01T23:50:44.164Z,1.80
2018-07-01T23:53:13.789Z,2.60
2018-07-01T23:55:43.791Z,1.83
2018-07-01T23:58:13.510Z,2.13
